Terminal Aerodrome Forecast
Issued by NWS

Home | Current Version | Previous Version | Text Only | Print | Product List | Glossary On
Versions: 1 2 3 4 5 6 7 8 9 10 11 12 13 14 15 16
000
FTUS43 KFGF 232000 AAA
TAFDVL
TAF AMD
KDVL 232050Z 2321/2418 32022G30KT P6SM BKN007
     FM232200 32022G28KT 3SM -SN BKN007
     FM240000 34025G33KT 4SM -SN BKN015
     FM240600 34023G30KT P6SM BKN025
     FM241500 34020G28KT P6SM SCT025
      AMD LTD TO CLD VIS AND WIND=

USA.gov is the U.S. government's official web portal to all federal, state and local government web resources and services.